Aérodrome :
LOGIN :

S'inscrire | Disclaimer

   EN    FR    IT 

 










Légende :    VFR   VFR Marginal   IFR   IFR Intensif   IFR Très Intensif
Visi : 
Plafond : 
>= 8 km
>= 3000ft
5 à 8 km
1000 à 3000 ft
1500m à 5 km
500 à 1000 ft
800 à 1500m
200 à 500 ft
< 800m
< 200 ft
Symboles :   Orages  Brouillard  Fortes neiges  Fortes précipitations  Vent > 20 kt
SIGMETs :   Divers  Orages  Givrage  Turbulence  Onde Orograph.  Cendres Volcan.







- Altitude de l'aérodrome : 265 ft


ETSH - Holzdorf AB

DERNIER METAR :
  • 192120Z 27003KT 9999 BKN090 11/08 Q1018 BLU

METARs EXPIRÉS :
  • 192020Z 25003KT 9999 BKN090 12/08 Q1018 BLU
  • 191920Z VRB03KT 9999 BKN090 11/08 Q1017 BLU

TAF AMD TAF ETSH
Valide du 19 à 14h jusqu'au 19 à 23h UTC


191442Z 1914/1923 25006KT 9999 NSW SCT040 CANCEL 1500
Pas de NOTAMs connus pour ce terrain.



MET'MAP, la Météo Aéronautique d'un coup d'oeil ! - Copyright ORBIFLY Décembre 2007 - Disclaimer

ORBIFLY MET'MAP TEAM :

Programmation & Développement : Alexandra Zaïnal
Conception & Développement : Baudouin d'Aumeries
Co-Programmation & Développement : Marc-Olivier Méhu
Soutien technique & logistique : Manuel Goepfert

Contact : metmap@orbifly.com




SOURCES & CREDITS :

   NOAA